Durango Ski Resort, Colorado Weather observations

Data are for observation ending at time listed.
 Day   Time    Ave.   Ave.  Ave.  Vector   Max.    Total    Solar   Ave.  
  of    of     Air    Rel.  Wind   Wind    Wind   Precip.   Rad.    Soil  
Year   Day     Temp.  Hum.  Speed  Dir.    Gust                     Temp. 
2015   (PST)    F      %     mph   deg.    mph      in.     W/m2     F   
------------------------------------------------------------------------------
  88    2:20   39.1    33   11.1   312     15.0    99999.00   99999    99999.0
  88    2:30   38.8    33   11.2   313     15.0    99999.00   99999    99999.0
  88    2:40   39.1    33   11.9   313     15.0    99999.00   99999    99999.0
  88    2:50   39.4    33   13.7   316     17.6    99999.00   99999    99999.0
  88    3:00   39.5    32   12.8   314     17.6    99999.00   99999    99999.0
  88    3:10   39.4    32   11.2   315     15.0    99999.00   99999    99999.0
  88    3:20   39.5    32   11.1   315     14.6    99999.00   99999    99999.0
  88    3:30   39.4    32   10.7   311     14.2    99999.00   99999    99999.0
  88    3:40   39.3    33   10.4   315     16.8    99999.00   99999    99999.0
  88    3:50   39.2    33   10.6   319     16.8    99999.00   99999    99999.0
  88    4:00   39.0    34    8.6   329     12.1    99999.00   99999    99999.0
  88    4:10   38.9    35    6.6   334      8.6    99999.00   99999    99999.0
  88    4:20   39.0    35    7.0   345      9.9    99999.00   99999    99999.0
  88    4:30   39.0    34    8.6   342     19.3    99999.00   99999    99999.0
  88    4:40   38.5    35   10.5   333     18.5    99999.00   99999    99999.0
  88    4:50   37.6    38    5.1   357     12.5    99999.00   99999    99999.0
  88    5:00   37.1    39    1.2     2      8.2    99999.00   99999    99999.0
  88    5:10   35.8    43    4.5    64     10.3    99999.00   99999    99999.0
  88    5:20   35.4    44    6.9    65     10.8    99999.00   99999    99999.0
  88    5:30   35.2    44    5.6    55     12.1    99999.00   99999    99999.0
  88    5:40   35.0    45    4.6    54      8.6    99999.00   99999    99999.0
  88    5:50   35.0    46    3.6    46      8.6    99999.00   99999    99999.0
  88    6:00   34.7    46    1.8    50      9.5    99999.00   99999    99999.0
  88    6:10   34.6    46    0.0    40      3.1    99999.00   99999    99999.0
  88    6:20   34.7    46    0.4    24      6.5    99999.00   99999    99999.0
  88    6:30   36.4    42    0.2    41      3.5    99999.00   99999    99999.0
  88    6:40   37.8    39    0.7    53      4.4    99999.00   99999    99999.0
  88    6:50   38.6    37    1.9    57      5.7    99999.00   99999    99999.0
  88    7:00   40.0    34    0.7    40      5.2    99999.00   99999    99999.0
  88    7:10   41.0    33    0.1    32      3.1    99999.00   99999    99999.0
  88    7:20   41.0    33    2.0    53      6.9    99999.00   99999    99999.0
  88    7:30   40.5    33    0.6    53      6.9    99999.00   99999    99999.0
  88    7:40   42.5    32    0.0     0      0.0    99999.00   99999    99999.0
  88    7:50   41.4    31    1.6   328     11.6    99999.00   99999    99999.0
  88    8:00   40.9    30    4.3   349      8.2    99999.00   99999    99999.0
  88    8:10   41.3    28    5.0   329     10.3    99999.00   99999    99999.0
  88    8:20   41.1    29    7.8   334     12.5    99999.00   99999    99999.0
  88    8:30   41.7    28    7.2   341     12.1    99999.00   99999    99999.0
  88    8:40   41.9    28    7.3   323     14.2    99999.00   99999    99999.0
  88    8:50   42.6    26    5.7   325      8.6    99999.00   99999    99999.0
  88    9:00   43.3    26    3.5   315     10.3    99999.00   99999    99999.0
  88    9:10   43.5    25    6.6   325     12.9    99999.00   99999    99999.0
  88    9:20   43.6    22   10.1   331     22.7    99999.00   99999    99999.0
  88    9:30   43.8    21    9.6   323     22.3    99999.00   99999    99999.0
  88    9:40   43.4    19   14.4   328     25.7    99999.00   99999    99999.0
  88    9:50   44.5    18    8.9   323     21.0    99999.00   99999    99999.0
  88   10:00   45.0    17   11.9   310     21.9    99999.00   99999    99999.0
  88   10:10   44.4    16   16.9   319     25.3    99999.00   99999    99999.0
  88   10:20   44.9    17   12.5   312     21.9    99999.00   99999    99999.0
  88   10:30   45.2    17    7.4   340     18.5    99999.00   99999    99999.0
  88   10:40   45.2    17    6.0   352     11.6    99999.00   99999    99999.0
  88   10:50   45.7    18    6.3   333     12.1    99999.00   99999    99999.0
  88   11:00   46.0    16    9.9   300     21.0    99999.00   99999    99999.0
  88   11:10   47.7    15    7.2   295     19.7    99999.00   99999    99999.0
  88   11:20   46.2    15   13.2   312     21.0    99999.00   99999    99999.0
  88   11:30   46.7    14    8.4   292     15.9    99999.00   99999    99999.0
  88   11:40   46.5    14   10.8   304     19.7    99999.00   99999    99999.0
  88   11:50   46.5    14   10.0   305     19.3    99999.00   99999    99999.0
  88   12:00   46.8    14    8.5   308     21.4    99999.00   99999    99999.0
  88   12:10   47.0    14    6.6   328     15.0    99999.00   99999    99999.0
  88   12:20   47.6    14    7.4   305     17.6    99999.00   99999    99999.0
  88   12:30   47.2    14   10.7   315     22.3    99999.00   99999    99999.0
  88   12:40   47.7    13    4.6   327     13.3    99999.00   99999    99999.0
  88   12:50   47.5    13    7.7   351     15.9    99999.00   99999    99999.0
  88   13:00   47.6    14    7.3   340     16.8    99999.00   99999    99999.0
  88   13:10   47.4    13    8.2   345     11.6    99999.00   99999    99999.0
  88   13:20   48.5    13    3.8   324      9.9    99999.00   99999    99999.0
  88   13:30   48.9    13    9.6   310     16.8    99999.00   99999    99999.0
  88   13:40   49.2    13    8.4   295     17.6    99999.00   99999    99999.0
  88   13:50   49.0    13    7.4   311     22.7    99999.00   99999    99999.0
  88   14:00   50.1    13    9.0   296     21.0    99999.00   99999    99999.0
  88   14:10   48.5    13    9.3   324     22.7    99999.00   99999    99999.0
  88   14:20   50.5    13    5.0   302     16.3    99999.00   99999    99999.0
  88   14:30   50.9    12    7.5   264     14.2    99999.00   99999    99999.0
  88   14:40   49.9    13    9.6   302     18.9    99999.00   99999    99999.0
  88   14:50   49.0    13    7.6   318     21.0    99999.00   99999    99999.0
  88   15:00   49.0    12   10.2   311     19.3    99999.00   99999    99999.0
  88   15:10   49.1    12    8.5   310     19.3    99999.00   99999    99999.0
  88   15:20   50.8    12    5.1   250     11.2    99999.00   99999    99999.0
  88   15:30   50.2    12    9.7   311     21.9    99999.00   99999    99999.0
  88   15:40   49.0    12   10.8   301     20.2    99999.00   99999    99999.0
  88   15:50   48.8    11   10.3   311     16.8    99999.00   99999    99999.0
  88   16:00   49.0    11    9.2   306     22.7    99999.00   99999    99999.0
  88   16:10   48.9    10    8.9   306     21.0    99999.00   99999    99999.0
  88   16:20   48.8    10   11.3   300     25.3    99999.00   99999    99999.0
  88   16:30   49.7    10    7.4   298     13.8    99999.00   99999    99999.0
  88   16:40   48.3    10   11.2   312     20.6    99999.00   99999    99999.0
  88   16:50   48.1    10    8.8   323     17.2    99999.00   99999    99999.0
  88   17:00   47.5    10    9.6   339     16.3    99999.00   99999    99999.0
  88   17:10   47.5    10   10.2   320     19.3    99999.00   99999    99999.0
  88   17:20   47.3    10   14.2   309     24.0    99999.00   99999    99999.0
  88   17:30   47.0    10    9.6   321     16.8    99999.00   99999    99999.0
  88   17:40   46.9    11    9.8   316     15.0    99999.00   99999    99999.0
  88   17:50   46.3    11   10.4   317     16.3    99999.00   99999    99999.0
  88   18:00   45.7    11   12.0   321     19.7    99999.00   99999    99999.0
  88   18:10   45.1    11   10.3   318     15.9    99999.00   99999    99999.0
  88   18:20   44.8    11   13.5   326     22.3    99999.00   99999    99999.0
  88   18:30   44.1    11   11.7   325     19.3    99999.00   99999    99999.0
  88   18:40   43.6    11   12.6   322     17.2    99999.00   99999    99999.0
  88   18:50   43.1    11   13.5   322     20.6    99999.00   99999    99999.0
  88   19:00   42.7    12   11.1   320     15.9    99999.00   99999    99999.0
  88   19:10   42.2    12    9.9   316     14.6    99999.00   99999    99999.0
  88   19:20   41.9    12    8.9   318     11.2    99999.00   99999    99999.0
  88   19:30   41.7    12    6.9   320      9.5    99999.00   99999    99999.0
  88   19:40   41.5    13    8.2   312     10.8    99999.00   99999    99999.0
  88   19:50   41.5    13    9.2   313     12.5    99999.00   99999    99999.0
  88   20:00   41.2    13    9.0   310     12.9    99999.00   99999    99999.0
  88   20:10   41.1    13   11.4   323     15.0    99999.00   99999    99999.0
  88   20:20   40.9    14    9.4   321     14.2    99999.00   99999    99999.0
  88   20:30   40.4    14    7.2   306      9.9    99999.00   99999    99999.0
  88   20:40   40.2    14    7.9   307     11.6    99999.00   99999    99999.0
  88   20:50   40.3    14    9.0   309     12.1    99999.00   99999    99999.0
  88   21:00   40.4    14    9.9   315     12.1    99999.00   99999    99999.0
  88   21:10   40.5    14   10.1   323     12.5    99999.00   99999    99999.0
  88   21:20   40.4    14    8.8   325     11.2    99999.00   99999    99999.0
  88   21:30   40.5    14    8.7   327     10.8    99999.00   99999    99999.0
  88   21:40   40.7    15    8.4   324     11.2    99999.00   99999    99999.0
  88   21:50   40.7    15    7.5   324      9.1    99999.00   99999    99999.0
  88   22:00   40.8    16    7.1   327      9.9    99999.00   99999    99999.0
  88   22:10   40.8    16    5.9   327      7.8    99999.00   99999    99999.0
  88   22:20   40.8    16    4.9   330      7.4    99999.00   99999    99999.0
  88   22:30   40.9    17    4.8   333      6.5    99999.00   99999    99999.0
  88   22:40   40.8    17    4.6   331      6.1    99999.00   99999    99999.0
  88   22:50   40.6    17    5.0   328      6.5    99999.00   99999    99999.0
  88   23:00   40.5    17    5.0   323      6.1    99999.00   99999    99999.0
  88   23:10   40.8    17    4.5   323      5.7    99999.00   99999    99999.0
  88   23:20   41.0    17    3.9   323      4.8    99999.00   99999    99999.0
  88   23:30   41.0    17    4.4   323      4.8    99999.00   99999    99999.0
  88   23:40   40.7    17    4.8   323      5.7    99999.00   99999    99999.0
  88   23:50   40.0    17    4.8   312      6.9    99999.00   99999    99999.0
  89    0:00   39.5    17    7.9   310     10.8    99999.00   99999    99999.0
  89    0:10   39.4    16    9.1   312     12.1    99999.00   99999    99999.0
  89    0:20   38.9    16    8.0   317      9.9    99999.00   99999    99999.0
  89    0:30   38.9    17    7.5   327     11.2    99999.00   99999    99999.0
  89    0:40   38.7    19    9.0   327     12.1    99999.00   99999    99999.0
  89    0:50   38.8    20    7.8   327     11.2    99999.00   99999    99999.0
  89    1:00   38.8    21    8.3   325     12.1    99999.00   99999    99999.0
  89    1:10   38.9    21    8.0   324     10.8    99999.00   99999    99999.0
  89    1:20   39.0    21    7.6   324     11.6    99999.00   99999    99999.0
  89    1:30   39.1    20    8.3   317     11.2    99999.00   99999    99999.0
  89    1:40   39.1    20    8.7   318     11.6    99999.00   99999    99999.0
  89    1:50   39.2    19    8.5   322     10.3    99999.00   99999    99999.0
  89    2:00   39.1    19    8.0   330      9.9    99999.00   99999    99999.0
  89    2:10   38.8    20    7.6   333      9.9    99999.00   99999    99999.0

Return to Durango Ski Resort, Colorado graphs page.


Western Regional Climate Center,wrcc@dri.edu